Time;durP1;ratioP1;P1;durP2;ratioP2;P2;SDS_P1;SDS_P2;PMS_P1;PMS_P2;Temp;Humidity;BMP_temperature;BMP_pressure;BME280_temperature;BME280_humidity;BME280_pressure;Samples;Min_cycle;Max_cycle;Signal;HPM_P1;HPM_P2
2023/12/21 00:00:04;;;;;;;23.17;4.82;;;9.70;95.60;;;;;;5040429;28;20041;-83
2023/12/21 00:02:29;;;;;;;19.08;4.10;;;9.70;95.60;;;;;;5098809;28;20043;-83
2023/12/21 00:04:55;;;;;;;19.05;4.97;;;9.70;95.50;;;;;;5071683;28;20451;-80
2023/12/21 00:07:21;;;;;;;24.75;5.65;;;9.70;95.60;;;;;;5036786;28;20117;-82
2023/12/21 00:09:47;;;;;;;18.58;4.13;;;9.70;95.60;;;;;;5046880;28;20127;-80
2023/12/21 00:12:12;;;;;;;33.90;4.97;;;9.70;95.60;;;;;;5038986;28;20075;-80
2023/12/21 00:14:38;;;;;;;18.27;5.32;;;9.70;95.50;;;;;;5053262;28;20037;-81
2023/12/21 00:17:04;;;;;;;23.80;4.53;;;9.70;95.50;;;;;;5019133;28;20443;-80
2023/12/21 00:19:30;;;;;;;14.82;4.43;;;9.70;95.40;;;;;;5063390;28;20531;-81
2023/12/21 00:21:55;;;;;;;23.95;5.82;;;9.80;95.40;;;;;;5052850;28;20063;-81
2023/12/21 00:24:21;;;;;;;16.98;3.65;;;9.70;95.40;;;;;;5043202;28;20737;-80
2023/12/21 00:26:47;;;;;;;18.52;4.32;;;9.70;95.40;;;;;;5034147;28;20401;-81
2023/12/21 00:29:13;;;;;;;24.27;4.13;;;9.70;95.30;;;;;;5067949;28;20136;-80
2023/12/21 00:31:39;;;;;;;16.05;4.07;;;9.80;95.20;;;;;;5051397;28;20064;-83
2023/12/21 00:34:05;;;;;;;16.45;3.78;;;9.70;95.20;;;;;;5073772;28;20033;-82
2023/12/21 00:36:31;;;;;;;21.27;4.65;;;9.80;95.20;;;;;;5061442;28;20405;-81
2023/12/21 00:38:57;;;;;;;16.77;3.90;;;9.70;95.00;;;;;;5071856;28;20033;-82
2023/12/21 00:41:22;;;;;;;20.98;4.45;;;9.80;95.20;;;;;;5033789;28;20049;-82
2023/12/21 00:43:48;;;;;;;20.15;4.45;;;9.80;95.10;;;;;;5067250;28;20037;-82
2023/12/21 00:46:14;;;;;;;18.45;4.00;;;9.80;95.20;;;;;;5034246;28;20113;-80
2023/12/21 00:48:39;;;;;;;16.88;3.47;;;9.80;95.10;;;;;;5034344;28;20037;-81
2023/12/21 00:51:06;;;;;;;11.93;3.25;;;9.70;95.20;;;;;;5052464;28;20037;-84
2023/12/21 00:53:32;;;;;;;17.08;5.00;;;9.80;95.30;;;;;;5039955;28;20041;-80
2023/12/21 00:55:57;;;;;;;15.10;3.33;;;9.70;95.10;;;;;;5042555;28;20044;-80
2023/12/21 00:58:23;;;;;;;19.42;4.63;;;9.60;95.30;;;;;;5061182;28;20090;-81
2023/12/21 01:00:50;;;;;;;18.75;3.35;;;9.70;95.40;;;;;;5085019;28;20051;-81
2023/12/21 01:03:15;;;;;;;15.77;4.00;;;9.70;95.30;;;;;;5050702;28;20041;-82
2023/12/21 01:05:41;;;;;;;24.52;5.65;;;9.70;95.50;;;;;;5050928;28;20047;-80
2023/12/21 01:08:07;;;;;;;18.77;3.95;;;9.70;95.60;;;;;;5051341;28;20036;-80
2023/12/21 01:10:33;;;;;;;28.33;4.95;;;9.70;95.60;;;;;;5067921;28;20120;-82
2023/12/21 01:12:59;;;;;;;20.08;4.97;;;9.60;95.60;;;;;;5067343;28;20041;-80
2023/12/21 01:15:24;;;;;;;12.30;4.55;;;9.60;95.80;;;;;;5054420;28;20446;-80
2023/12/21 01:17:50;;;;;;;17.60;4.07;;;9.60;95.90;;;;;;5034301;28;20075;-80
2023/12/21 01:20:16;;;;;;;12.85;3.58;;;9.60;95.90;;;;;;5051021;28;20065;-80
2023/12/21 01:22:42;;;;;;;20.63;4.90;;;9.60;95.80;;;;;;5073167;28;20128;-80
2023/12/21 01:25:08;;;;;;;17.45;4.20;;;9.60;95.90;;;;;;5055146;28;20041;-79
2023/12/21 01:27:33;;;;;;;14.25;3.92;;;9.60;95.80;;;;;;5050383;28;20445;-80
2023/12/21 01:29:59;;;;;;;14.18;3.25;;;9.60;95.90;;;;;;5023663;28;20045;-81
2023/12/21 01:32:25;;;;;;;16.25;4.28;;;9.60;95.80;;;;;;5049283;28;20409;-79
2023/12/21 01:34:50;;;;;;;16.27;4.00;;;9.60;95.80;;;;;;5040989;28;20374;-79
2023/12/21 01:37:16;;;;;;;10.75;2.95;;;9.60;95.90;;;;;;5035615;28;20056;-79
2023/12/21 01:39:42;;;;;;;19.10;5.00;;;9.60;96.00;;;;;;5041196;28;20049;-80
2023/12/21 01:42:08;;;;;;;15.95;4.32;;;9.60;96.10;;;;;;5053764;28;20037;-80
2023/12/21 01:44:33;;;;;;;14.63;3.45;;;9.60;95.90;;;;;;5037555;28;20393;-79
2023/12/21 01:46:59;;;;;;;24.75;6.60;;;9.60;95.90;;;;;;5037472;28;20049;-79
2023/12/21 01:49:25;;;;;;;18.95;3.85;;;9.60;96.00;;;;;;5037389;28;20041;-81
2023/12/21 01:51:51;;;;;;;18.10;4.32;;;9.60;96.00;;;;;;5054168;28;20115;-80
2023/12/21 01:54:17;;;;;;;18.38;3.83;;;9.60;96.00;;;;;;5072102;28;20116;-80
2023/12/21 01:56:44;;;;;;;14.13;3.83;;;9.60;95.90;;;;;;5053524;28;20048;-82
2023/12/21 01:59:10;;;;;;;22.17;4.18;;;9.60;96.10;;;;;;5061446;28;20040;-80
2023/12/21 02:01:38;;;;;;;21.98;4.43;;;9.60;96.10;;;;;;5073967;28;20128;-80
2023/12/21 02:04:04;;;;;;;17.95;4.05;;;9.60;96.20;;;;;;5088823;28;20076;-81
2023/12/21 02:06:30;;;;;;;18.63;3.60;;;9.60;96.30;;;;;;5020900;28;20485;-80
2023/12/21 02:08:56;;;;;;;21.17;4.75;;;9.60;96.30;;;;;;5052016;28;20040;-81
2023/12/21 02:11:22;;;;;;;19.05;4.05;;;9.60;96.20;;;;;;5040498;28;20481;-79
2023/12/21 02:13:47;;;;;;;15.82;5.03;;;9.60;96.40;;;;;;5057148;28;20048;-80
2023/12/21 02:16:19;;;;;;;17.50;4.47;;;9.60;96.30;;;;;;5057962;28;20056;-80
2023/12/21 02:18:47;;;;;;;23.83;5.07;;;9.60;96.40;;;;;;5055161;28;20064;-80
2023/12/21 02:21:13;;;;;;;14.65;3.38;;;9.60;96.30;;;;;;5071249;28;20050;-80
2023/12/21 02:23:42;;;;;;;16.08;4.20;;;9.60;96.40;;;;;;5038217;28;20064;-80
2023/12/21 02:26:08;;;;;;;18.42;3.72;;;9.60;96.30;;;;;;5036393;28;20041;-80
2023/12/21 02:28:34;;;;;;;13.20;3.50;;;9.60;96.40;;;;;;5054605;28;20045;-81
2023/12/21 02:31:00;;;;;;;25.08;3.83;;;9.60;96.40;;;;;;5053248;28;20044;-80
2023/12/21 02:33:25;;;;;;;16.92;4.50;;;9.60;96.30;;;;;;5068514;28;20032;-81
2023/12/21 02:35:51;;;;;;;17.52;4.68;;;9.60;96.40;;;;;;5036958;28;20051;-82
2023/12/21 02:38:17;;;;;;;18.23;4.47;;;9.60;96.50;;;;;;5057842;28;20093;-79
2023/12/21 02:40:42;;;;;;;15.73;3.45;;;9.60;96.40;;;;;;5049588;28;20500;-80
2023/12/21 02:43:08;;;;;;;16.98;5.57;;;9.60;96.40;;;;;;5041234;28;20056;-80
2023/12/21 02:45:34;;;;;;;21.27;3.78;;;9.60;96.40;;;;;;5036248;28;20664;-81
2023/12/21 02:47:59;;;;;;;19.48;5.13;;;9.60;96.50;;;;;;5036200;28;20386;-81
2023/12/21 02:50:25;;;;;;;19.25;4.43;;;9.60;96.70;;;;;;5052963;28;20037;-80
2023/12/21 02:52:51;;;;;;;16.98;3.72;;;9.60;96.50;;;;;;5042293;28;20091;-79
2023/12/21 02:55:16;;;;;;;19.98;4.28;;;9.60;96.60;;;;;;5036325;28;20083;-79
2023/12/21 02:57:42;;;;;;;15.93;3.97;;;9.60;96.70;;;;;;5035027;28;20044;-80
2023/12/21 03:00:08;;;;;;;13.90;4.22;;;9.60;96.70;;;;;;5053290;28;20323;-81
2023/12/21 03:02:34;;;;;;;18.83;3.85;;;9.60;96.90;;;;;;5038827;28;20039;-80
2023/12/21 03:05:00;;;;;;;15.65;4.10;;;9.60;97.00;;;;;;5038597;28;20395;-80
2023/12/21 03:07:25;;;;;;;16.95;5.22;;;9.50;97.00;;;;;;5064483;28;20064;-82
2023/12/21 03:09:51;;;;;;;13.95;3.63;;;9.50;97.00;;;;;;5069341;28;20044;-80
2023/12/21 03:12:16;;;;;;;17.50;4.75;;;9.60;96.90;;;;;;5035648;28;20037;-79
2023/12/21 03:14:42;;;;;;;21.45;4.18;;;9.60;96.80;;;;;;5043518;28;20036;-82
2023/12/21 03:17:08;;;;;;;11.85;4.05;;;9.60;96.80;;;;;;5040460;28;20044;-83
2023/12/21 03:19:34;;;;;;;16.52;2.83;;;9.60;96.80;;;;;;5050803;28;20184;-82
2023/12/21 03:22:00;;;;;;;14.00;3.63;;;9.60;96.70;;;;;;5048161;28;20048;-80
2023/12/21 03:24:25;;;;;;;19.17;4.05;;;9.60;96.60;;;;;;5068960;28;20408;-82
2023/12/21 03:26:51;;;;;;;16.02;5.15;;;9.60;96.60;;;;;;5035730;28;20041;-80
2023/12/21 03:29:17;;;;;;;20.65;4.13;;;9.60;96.60;;;;;;5017219;28;20047;-81
2023/12/21 03:31:42;;;;;;;13.88;3.15;;;9.70;96.40;;;;;;5051579;28;20120;-80
2023/12/21 03:34:08;;;;;;;16.10;4.07;;;9.60;96.30;;;;;;5068771;28;20094;-81
2023/12/21 03:36:34;;;;;;;12.80;3.53;;;9.70;96.30;;;;;;5035597;28;20490;-80
2023/12/21 03:38:59;;;;;;;10.32;3.15;;;9.60;96.30;;;;;;5055531;28;20123;-81
2023/12/21 03:41:25;;;;;;;15.65;3.53;;;9.70;96.10;;;;;;5035063;28;20033;-80
2023/12/21 03:43:51;;;;;;;18.95;3.20;;;9.70;96.00;;;;;;5041691;28;20059;-80
2023/12/21 03:46:17;;;;;;;15.85;3.00;;;9.60;96.00;;;;;;5066225;28;20407;-80
2023/12/21 03:48:43;;;;;;;16.30;4.00;;;9.70;96.00;;;;;;5035042;28;20037;-80
2023/12/21 03:51:08;;;;;;;13.82;3.92;;;9.70;96.00;;;;;;5051845;28;20120;-81
2023/12/21 03:53:34;;;;;;;16.40;3.03;;;9.70;95.70;;;;;;5053038;28;20428;-81
2023/12/21 03:56:00;;;;;;;14.15;3.17;;;9.70;95.70;;;;;;5018709;28;20041;-83
2023/12/21 03:58:25;;;;;;;12.55;3.38;;;9.80;95.70;;;;;;5039476;28;20037;-81
2023/12/21 04:00:51;;;;;;;17.45;5.65;;;9.70;95.60;;;;;;5072158;28;20040;-81
2023/12/21 04:03:17;;;;;;;15.45;2.75;;;9.70;95.80;;;;;;5048801;28;20033;-81
2023/12/21 04:05:42;;;;;;;15.07;4.28;;;9.70;95.80;;;;;;5018628;28;20044;-82
2023/12/21 04:08:08;;;;;;;18.40;4.43;;;9.60;95.90;;;;;;5018676;28;20037;-81
2023/12/21 04:10:34;;;;;;;22.13;3.65;;;9.70;95.90;;;;;;5071929;28;20040;-83
2023/12/21 04:13:00;;;;;;;18.27;3.63;;;9.60;96.00;;;;;;5052337;28;20055;-81
2023/12/21 04:15:26;;;;;;;16.27;4.18;;;9.60;96.10;;;;;;5018909;28;20025;-82
2023/12/21 04:17:51;;;;;;;22.15;4.63;;;9.60;96.10;;;;;;5036993;28;20045;-82
2023/12/21 04:20:17;;;;;;;16.60;3.95;;;9.50;96.40;;;;;;5050805;28;20033;-80
2023/12/21 04:22:43;;;;;;;22.98;4.93;;;9.60;96.40;;;;;;5034289;28;20043;-81
2023/12/21 04:25:09;;;;;;;16.02;3.65;;;9.50;96.50;;;;;;5084360;28;20063;-80
2023/12/21 04:27:34;;;;;;;20.30;4.88;;;9.50;96.70;;;;;;5027174;28;20146;-78
2023/12/21 04:30:01;;;;;;;16.08;5.28;;;9.50;96.80;;;;;;5056872;28;20037;-83
2023/12/21 04:32:26;;;;;;;15.82;3.90;;;9.50;96.80;;;;;;5034801;28;20037;-80
2023/12/21 04:34:52;;;;;;;13.25;3.55;;;9.50;96.70;;;;;;5067715;28;20063;-80
2023/12/21 04:37:18;;;;;;;14.75;3.58;;;9.50;96.90;;;;;;5051402;28;20123;-81
2023/12/21 04:39:43;;;;;;;19.33;5.30;;;9.50;96.90;;;;;;5037946;28;20099;-79
2023/12/21 04:42:09;;;;;;;14.82;4.05;;;9.60;96.80;;;;;;5018374;28;20044;-80
2023/12/21 04:44:35;;;;;;;15.10;3.10;;;9.60;96.80;;;;;;5035094;28;20040;-82
2023/12/21 04:47:02;;;;;;;18.83;4.03;;;9.60;96.60;;;;;;5050359;28;20128;-80
2023/12/21 04:49:27;;;;;;;11.30;3.63;;;9.60;96.40;;;;;;5034778;28;20044;-81
2023/12/21 04:51:53;;;;;;;9.88;2.45;;;9.60;96.50;;;;;;5054945;28;20036;-80
2023/12/21 04:54:19;;;;;;;20.38;4.13;;;9.60;96.40;;;;;;5051226;28;20408;-82
2023/12/21 04:56:44;;;;;;;13.10;4.10;;;9.60;96.20;;;;;;5021583;28;20033;-79
2023/12/21 04:59:10;;;;;;;17.38;4.28;;;9.60;96.20;;;;;;5050381;28;20041;-82
2023/12/21 05:01:36;;;;;;;16.23;4.38;;;9.60;96.20;;;;;;5037040;28;20094;-81
2023/12/21 05:04:06;;;;;;;19.77;4.57;;;9.60;96.10;;;;;;5038481;28;20044;-81
2023/12/21 05:06:32;;;;;;;24.65;5.75;;;9.60;96.10;;;;;;5088250;28;20515;-80
2023/12/21 05:08:59;;;;;;;20.35;4.30;;;9.60;96.20;;;;;;5038284;28;20049;-81
2023/12/21 05:11:25;;;;;;;11.02;3.20;;;9.60;96.10;;;;;;5074716;28;20037;-81
2023/12/21 05:13:50;;;;;;;18.00;4.20;;;9.60;96.00;;;;;;5040731;28;20040;-81
2023/12/21 05:16:16;;;;;;;19.88;3.75;;;9.70;95.90;;;;;;5038629;28;20460;-82
2023/12/21 05:18:42;;;;;;;16.27;3.25;;;9.70;95.90;;;;;;5052163;28;20041;-81
2023/12/21 05:21:09;;;;;;;19.67;4.30;;;9.70;95.90;;;;;;5054553;28;20424;-83
2023/12/21 05:23:35;;;;;;;11.82;3.90;;;9.70;95.60;;;;;;5065656;28;20045;-81
2023/12/21 05:26:00;;;;;;;11.85;3.05;;;9.80;95.60;;;;;;5054797;28;20041;-82
2023/12/21 05:28:26;;;;;;;16.30;3.88;;;9.90;95.40;;;;;;5066345;28;20047;-81
2023/12/21 05:30:52;;;;;;;13.07;2.78;;;9.90;95.20;;;;;;5047110;28;20451;-80
2023/12/21 05:33:18;;;;;;;16.70;4.55;;;10.00;95.00;;;;;;5037791;28;20079;-81
2023/12/21 05:35:43;;;;;;;16.08;4.82;;;10.00;95.00;;;;;;5071110;28;20083;-81
2023/12/21 05:38:09;;;;;;;17.33;3.95;;;9.90;95.20;;;;;;5040430;28;20087;-80
2023/12/21 05:40:35;;;;;;;11.38;3.45;;;9.90;95.30;;;;;;5045108;28;20039;-81
2023/12/21 05:43:00;;;;;;;11.82;3.45;;;9.90;95.10;;;;;;5071083;28;20127;-82
2023/12/21 05:45:26;;;;;;;10.95;3.17;;;9.90;95.10;;;;;;5050503;28;20052;-80
2023/12/21 05:47:52;;;;;;;9.77;2.88;;;9.90;95.20;;;;;;5059452;28;20517;-80
2023/12/21 05:50:17;;;;;;;9.95;2.58;;;10.00;95.00;;;;;;5080604;28;20037;-80
2023/12/21 05:52:43;;;;;;;15.10;3.03;;;10.00;94.90;;;;;;5057576;28;20107;-80
2023/12/21 05:55:14;;;;;;;16.75;4.20;;;10.00;94.80;;;;;;5074063;28;20041;-82
2023/12/21 05:57:41;;;;;;;16.38;3.55;;;10.10;94.70;;;;;;5057711;28;20044;-80
2023/12/21 06:00:08;;;;;;;11.18;2.95;;;10.00;94.70;;;;;;5050869;28;20500;-83
2023/12/21 06:02:33;;;;;;;10.85;3.20;;;10.00;94.70;;;;;;5026036;28;20051;-81
2023/12/21 06:04:59;;;;;;;15.57;3.75;;;10.00;94.80;;;;;;5087063;28;20037;-81
2023/12/21 06:07:25;;;;;;;17.25;4.75;;;10.00;95.00;;;;;;5037137;28;20040;-80
2023/12/21 06:09:50;;;;;;;14.80;4.53;;;10.00;95.00;;;;;;5059458;28;20029;-82
2023/12/21 06:12:16;;;;;;;19.90;4.13;;;10.00;95.10;;;;;;5036133;28;20519;-83
2023/12/21 06:14:42;;;;;;;12.77;2.92;;;10.00;95.30;;;;;;5046925;28;20111;-81
2023/12/21 06:17:09;;;;;;;12.98;3.35;;;9.90;95.40;;;;;;5073739;28;20043;-81
2023/12/21 06:19:35;;;;;;;17.15;3.85;;;9.90;95.70;;;;;;5050852;28;20483;-79
2023/12/21 06:22:01;;;;;;;18.90;4.80;;;9.80;95.90;;;;;;5046151;28;20128;-79
2023/12/21 06:24:27;;;;;;;20.50;4.13;;;9.70;96.20;;;;;;5058987;28;20071;-79
2023/12/21 06:26:53;;;;;;;12.80;4.13;;;9.70;96.30;;;;;;5036824;28;20084;-79
2023/12/21 06:29:18;;;;;;;11.85;3.97;;;9.70;96.50;;;;;;5053248;28;20040;-82
2023/12/21 06:31:44;;;;;;;19.38;4.32;;;9.70;96.80;;;;;;5063810;28;20093;-79
2023/12/21 06:34:10;;;;;;;14.75;3.83;;;9.60;96.80;;;;;;5054332;28;20124;-79
2023/12/21 06:36:35;;;;;;;10.73;4.38;;;9.60;97.10;;;;;;5036339;28;20047;-81
2023/12/21 06:39:01;;;;;;;10.90;3.33;;;9.60;97.00;;;;;;5053501;28;20037;-82
2023/12/21 06:41:28;;;;;;;17.42;4.43;;;9.60;97.30;;;;;;5043423;28;20520;-81
2023/12/21 06:43:53;;;;;;;12.00;3.30;;;9.60;97.40;;;;;;5052705;28;20041;-80
2023/12/21 06:46:20;;;;;;;12.57;3.15;;;9.50;97.60;;;;;;5043187;28;20048;-79
2023/12/21 06:48:46;;;;;;;10.77;3.72;;;9.50;97.60;;;;;;5050276;28;20058;-82
2023/12/21 06:51:13;;;;;;;9.80;2.85;;;9.50;97.60;;;;;;5073241;28;20122;-81
2023/12/21 06:53:39;;;;;;;16.60;4.30;;;9.50;97.70;;;;;;5076852;28;20044;-78
2023/12/21 06:56:06;;;;;;;9.65;3.60;;;9.50;97.70;;;;;;5072370;28;20396;-83
2023/12/21 06:58:33;;;;;;;15.13;3.58;;;9.50;97.90;;;;;;5092659;28;20106;-80
2023/12/21 07:00:59;;;;;;;14.80;3.20;;;9.50;97.80;;;;;;5083804;28;20043;-78
2023/12/21 07:03:24;;;;;;;12.05;3.20;;;9.50;97.80;;;;;;5060110;28;20597;-81
2023/12/21 07:05:50;;;;;;;13.27;4.05;;;9.50;97.80;;;;;;5082890;28;20121;-78
2023/12/21 07:08:17;;;;;;;13.82;4.70;;;9.50;97.90;;;;;;5073292;28;20044;-79
2023/12/21 07:10:43;;;;;;;15.38;4.10;;;9.50;97.80;;;;;;5085494;28;20055;-79
2023/12/21 07:13:10;;;;;;;14.00;3.70;;;9.50;97.90;;;;;;5068758;28;20093;-79
2023/12/21 07:15:36;;;;;;;18.25;4.05;;;9.50;97.90;;;;;;5076305;28;20032;-80
2023/12/21 07:18:01;;;;;;;18.27;5.00;;;9.50;97.90;;;;;;5065928;28;20086;-80
2023/12/21 07:20:30;;;;;;;12.57;4.32;;;9.50;97.90;;;;;;5065162;28;20037;-80
2023/12/21 07:22:56;;;;;;;22.48;5.03;;;9.50;98.00;;;;;;5082193;28;20482;-83
2023/12/21 07:25:22;;;;;;;15.68;4.32;;;9.50;98.00;;;;;;5089671;28;20089;-81
2023/12/21 07:27:48;;;;;;;16.95;4.10;;;9.60;97.90;;;;;;5066390;28;20040;-78
2023/12/21 07:30:14;;;;;;;21.17;5.15;;;9.60;97.90;;;;;;5065268;28;20035;-78
2023/12/21 07:32:40;;;;;;;22.20;4.68;;;9.60;97.90;;;;;;5062990;28;20093;-78
2023/12/21 07:35:06;;;;;;;24.02;5.50;;;9.60;98.00;;;;;;5035386;28;20480;-81
2023/12/21 07:37:31;;;;;;;16.83;4.57;;;9.60;98.00;;;;;;5085770;28;20040;-80
2023/12/21 07:39:57;;;;;;;20.77;4.60;;;9.60;97.90;;;;;;5083930;28;20044;-80
2023/12/21 07:42:23;;;;;;;29.20;5.03;;;9.60;98.10;;;;;;5039752;28;20041;-81
2023/12/21 07:44:48;;;;;;;18.35;6.00;;;9.60;98.10;;;;;;5056760;28;20511;-81
2023/12/21 07:47:14;;;;;;;24.20;4.50;;;9.60;98.10;;;;;;5072308;28;20079;-82
2023/12/21 07:49:40;;;;;;;22.73;6.00;;;9.60;98.10;;;;;;5068135;28;20389;-80
2023/12/21 07:52:05;;;;;;;22.73;4.93;;;9.60;98.20;;;;;;5082611;28;20492;-79
2023/12/21 07:54:31;;;;;;;23.25;4.72;;;9.70;98.00;;;;;;5081481;28;20044;-80
2023/12/21 07:56:57;;;;;;;14.45;4.47;;;9.70;97.90;;;;;;5077757;28;20517;-78
2023/12/21 07:59:24;;;;;;;16.33;5.18;;;9.70;98.00;;;;;;5077620;28;20127;-79
2023/12/21 08:01:50;;;;;;;21.50;6.22;;;9.80;97.80;;;;;;5063560;28;20131;-80
2023/12/21 08:04:18;;;;;;;20.25;5.05;;;9.90;97.60;;;;;;5062949;28;20210;-81
2023/12/21 08:06:44;;;;;;;27.98;4.88;;;9.90;97.40;;;;;;5061823;28;20105;-83
2023/12/21 08:09:09;;;;;;;21.17;4.95;;;10.00;97.20;;;;;;5059559;28;20438;-80
2023/12/21 08:11:35;;;;;;;21.98;4.78;;;10.10;96.90;;;;;;5060459;28;20752;-80
2023/12/21 08:14:01;;;;;;;22.20;5.03;;;10.10;96.80;;;;;;5059520;28;20036;-81
2023/12/21 08:16:27;;;;;;;21.55;4.85;;;10.10;96.70;;;;;;5059820;28;20044;-80
2023/12/21 08:18:53;;;;;;;19.73;5.05;;;10.20;96.50;;;;;;5074749;28;20416;-79
2023/12/21 08:21:19;;;;;;;14.73;3.72;;;10.10;96.20;;;;;;5065765;28;20058;-78
2023/12/21 08:23:44;;;;;;;24.98;5.15;;;10.20;96.20;;;;;;5076687;28;20043;-80
2023/12/21 08:26:10;;;;;;;33.75;4.85;;;10.20;96.20;;;;;;5076021;28;20840;-78
2023/12/21 08:28:37;;;;;;;19.90;7.20;;;10.20;96.20;;;;;;5072586;28;20032;-80
2023/12/21 08:31:03;;;;;;;25.45;5.88;;;10.30;96.10;;;;;;5080309;28;20075;-79
2023/12/21 08:33:30;;;;;;;20.73;4.32;;;10.20;96.10;;;;;;5066003;28;20048;-79
2023/12/21 08:35:56;;;;;;;22.63;4.57;;;10.30;96.00;;;;;;5064067;28;20098;-80
2023/12/21 08:38:21;;;;;;;12.93;3.65;;;10.30;96.10;;;;;;5048914;28;20075;-81
2023/12/21 08:40:47;;;;;;;17.80;4.22;;;10.20;96.30;;;;;;5083646;28;20053;-81
2023/12/21 08:43:14;;;;;;;28.40;5.60;;;10.20;96.30;;;;;;5065903;28;21397;-80
2023/12/21 08:45:40;;;;;;;23.15;5.97;;;10.30;96.40;;;;;;5084146;28;20083;-78
2023/12/21 08:48:06;;;;;;;20.63;5.32;;;10.30;96.40;;;;;;5081013;28;20059;-79
2023/12/21 08:50:32;;;;;;;29.95;6.53;;;10.30;96.50;;;;;;5048944;28;20039;-80
2023/12/21 08:53:00;;;;;;;17.58;3.47;;;10.30;96.30;;;;;;5080801;28;20438;-80
2023/12/21 08:55:27;;;;;;;21.45;4.50;;;10.20;96.50;;;;;;5095403;28;20123;-78
2023/12/21 08:57:55;;;;;;;14.40;3.50;;;10.30;96.50;;;;;;5079296;28;20090;-80
2023/12/21 09:00:20;;;;;;;16.85;3.53;;;10.30;96.50;;;;;;5079141;28;20040;-79
2023/12/21 09:02:46;;;;;;;15.80;4.13;;;10.40;96.40;;;;;;5095786;28;20051;-82
2023/12/21 09:05:13;;;;;;;16.55;3.88;;;10.40;96.30;;;;;;5058869;28;20048;-80
2023/12/21 09:07:39;;;;;;;23.42;4.78;;;10.40;96.40;;;;;;5075283;28;20115;-79
2023/12/21 09:10:06;;;;;;;25.98;5.78;;;10.50;96.20;;;;;;5075517;28;20040;-81
2023/12/21 09:12:32;;;;;;;15.18;4.40;;;10.50;96.20;;;;;;5075351;28;20075;-83
2023/12/21 09:14:57;;;;;;;18.27;4.35;;;10.50;96.30;;;;;;5058638;28;20107;-79
2023/12/21 09:17:23;;;;;;;20.45;4.00;;;10.60;96.00;;;;;;5075046;28;20040;-80
2023/12/21 09:19:49;;;;;;;18.00;4.85;;;10.60;95.80;;;;;;5075201;28;20039;-79
2023/12/21 09:22:14;;;;;;;15.93;3.95;;;10.60;95.90;;;;;;5041708;28;20130;-80
2023/12/21 09:24:40;;;;;;;21.40;4.28;;;10.70;95.70;;;;;;5058392;28;20110;-79
2023/12/21 09:27:06;;;;;;;16.27;3.55;;;10.70;95.50;;;;;;5058417;28;20040;-79
2023/12/21 09:29:32;;;;;;;25.70;4.38;;;10.70;95.50;;;;;;5075165;28;20049;-79
2023/12/21 09:31:59;;;;;;;18.05;4.40;;;10.70;95.40;;;;;;5058254;28;20048;-82
2023/12/21 09:34:24;;;;;;;15.25;3.88;;;10.70;95.40;;;;;;5041744;28;20120;-79
2023/12/21 09:36:52;;;;;;;17.98;4.30;;;10.80;95.20;;;;;;5058610;28;20125;-80
2023/12/21 09:39:19;;;;;;;16.90;3.00;;;10.80;95.10;;;;;;5075142;28;20055;-80
2023/12/21 09:41:44;;;;;;;14.10;4.22;;;10.80;95.10;;;;;;5075196;28;20052;-79
2023/12/21 09:44:16;;;;;;;21.05;5.10;;;10.80;95.00;;;;;;5074134;28;20044;-84
2023/12/21 09:46:44;;;;;;;30.83;4.90;;;10.80;94.90;;;;;;5073973;28;20501;-80
2023/12/21 09:49:11;;;;;;;16.42;3.80;;;10.90;94.80;;;;;;5074630;28;20123;-80
2023/12/21 09:51:38;;;;;;;23.83;4.10;;;10.90;94.90;;;;;;5074198;28;20041;-82
2023/12/21 09:54:05;;;;;;;17.60;3.78;;;10.90;94.70;;;;;;5074171;28;20037;-79
2023/12/21 09:56:32;;;;;;;18.55;4.10;;;11.00;94.50;;;;;;5041406;28;20041;-80
2023/12/21 09:59:00;;;;;;;27.10;4.38;;;10.90;94.40;;;;;;5074172;28;20055;-81
2023/12/21 10:01:26;;;;;;;16.73;4.28;;;10.90;94.30;;;;;;5057249;28;20123;-80
2023/12/21 10:03:52;;;;;;;13.57;3.08;;;11.00;94.00;;;;;;5061889;28;20171;-81
2023/12/21 10:06:18;;;;;;;23.63;4.63;;;11.00;94.00;;;;;;5072569;28;20497;-80
2023/12/21 10:08:43;;;;;;;16.40;3.47;;;11.00;94.00;;;;;;5076290;28;21172;-82
2023/12/21 10:11:09;;;;;;;18.50;3.95;;;11.00;93.80;;;;;;5059751;28;20045;-82
2023/12/21 10:13:35;;;;;;;17.40;4.03;;;11.00;93.50;;;;;;5060283;28;20136;-82
2023/12/21 10:16:04;;;;;;;12.23;2.92;;;11.10;93.40;;;;;;5076329;28;20385;-81
2023/12/21 10:18:30;;;;;;;11.10;3.15;;;11.10;93.10;;;;;;5072556;28;20048;-81
2023/12/21 10:20:57;;;;;;;14.70;3.45;;;11.10;93.10;;;;;;5079339;28;20046;-81
2023/12/21 10:23:24;;;;;;;16.33;5.00;;;11.20;92.90;;;;;;5040265;28;20044;-82
2023/12/21 10:25:52;;;;;;;14.02;3.38;;;11.20;93.00;;;;;;5041066;28;20078;-82
2023/12/21 10:28:22;;;;;;;13.18;3.70;;;11.20;92.90;;;;;;5060558;28;20059;-81
2023/12/21 10:30:56;;;;;;;18.67;3.70;;;11.20;92.80;;;;;;5075417;28;20119;-82
2023/12/21 10:33:22;;;;;;;9.60;2.92;;;11.20;92.20;;;;;;5056861;28;20047;-79
2023/12/21 10:35:51;;;;;;;16.35;3.92;;;11.20;92.30;;;;;;5072921;28;20044;-84
2023/12/21 10:38:17;;;;;;;20.67;3.45;;;11.20;92.60;;;;;;5079491;28;20495;-81
2023/12/21 10:40:45;;;;;;;23.80;4.72;;;11.20;92.40;;;;;;5072775;28;20044;-80
2023/12/21 10:43:11;;;;;;;18.60;3.78;;;11.20;92.60;;;;;;5074703;28;20044;-83
2023/12/21 10:45:36;;;;;;;17.20;4.75;;;11.10;92.80;;;;;;5040569;28;20048;-81
2023/12/21 10:48:08;;;;;;;20.35;5.55;;;11.10;92.60;;;;;;5061414;28;20078;-81
2023/12/21 10:50:35;;;;;;;18.08;4.40;;;11.10;92.60;;;;;;5080601;28;20035;-83
2023/12/21 10:53:02;;;;;;;25.95;5.55;;;11.10;92.70;;;;;;5075465;28;20508;-80
2023/12/21 10:55:30;;;;;;;19.75;3.40;;;11.20;92.50;;;;;;5058831;28;20051;-80
2023/12/21 10:57:57;;;;;;;17.50;3.50;;;11.20;92.40;;;;;;5076860;28;20040;-79
2023/12/21 11:00:24;;;;;;;16.95;3.85;;;11.10;92.40;;;;;;5075539;28;20044;-82
2023/12/21 11:02:49;;;;;;;20.88;3.53;;;11.20;92.40;;;;;;5056980;28;20047;-82
2023/12/21 11:05:26;;;;;;;26.08;4.32;;;11.10;92.10;;;;;;5087971;28;20048;-81
2023/12/21 11:07:53;;;;;;;16.88;4.05;;;11.20;92.00;;;;;;5042233;28;20098;-82
2023/12/21 11:10:22;;;;;;;19.20;4.53;;;11.20;91.70;;;;;;5060346;28;20106;-80
2023/12/21 11:12:48;;;;;;;20.17;4.57;;;11.20;91.40;;;;;;5101185;27;20154;-83
2023/12/21 11:15:19;;;;;;;23.20;5.57;;;11.20;91.30;;;;;;5044255;28;20047;-82
2023/12/21 11:17:58;;;;;;;29.48;5.03;;;11.20;91.30;;;;;;5074721;28;20056;-83
2023/12/21 11:20:28;;;;;;;16.25;3.35;;;11.30;90.70;;;;;;5052844;28;20124;-82
2023/12/21 11:22:55;;;;;;;16.13;3.78;;;11.30;90.40;;;;;;5056437;28;20054;-79
2023/12/21 11:25:22;;;;;;;18.92;4.18;;;11.40;90.30;;;;;;5073657;28;20101;-81
2023/12/21 11:27:49;;;;;;;24.77;5.88;;;11.40;90.10;;;;;;5062735;28;20044;-80
2023/12/21 11:30:15;;;;;;;30.17;5.72;;;11.40;90.10;;;;;;5054679;28;20045;-79
2023/12/21 11:32:42;;;;;;;20.83;4.47;;;11.40;90.00;;;;;;5074090;28;20442;-79
2023/12/21 11:35:22;;;;;;;29.17;4.68;;;11.40;89.90;;;;;;5040545;28;20079;-80
2023/12/21 11:37:49;;;;;;;13.88;4.85;;;11.50;89.80;;;;;;5053530;28;20452;-81
2023/12/21 11:40:17;;;;;;;21.52;4.65;;;11.50;89.60;;;;;;5057034;28;20058;-81
2023/12/21 11:42:48;;;;;;;20.58;5.22;;;11.60;89.30;;;;;;5076206;28;21135;-79
2023/12/21 11:45:27;;;;;;;15.43;4.65;;;11.60;89.00;;;;;;5075505;28;20044;-80
2023/12/21 11:47:56;;;;;;;28.15;6.30;;;11.80;88.90;;;;;;5058697;28;20047;-80
2023/12/21 11:50:26;;;;;;;21.30;4.72;;;11.80;88.10;;;;;;5059236;28;20384;-81
2023/12/21 11:53:08;;;;;;;21.80;5.03;;;11.80;88.30;;;;;;5060882;28;20036;-79
2023/12/21 11:55:39;;;;;;;24.23;4.57;;;11.80;88.20;;;;;;5074463;28;20110;-80
2023/12/21 11:58:18;;;;;;;16.33;4.53;;;12.00;87.80;;;;;;5059439;28;20059;-81
2023/12/21 12:00:53;;;;;;;22.35;5.88;;;12.00;87.30;;;;;;5074109;28;20044;-81
2023/12/21 12:03:21;;;;;;;18.88;5.30;;;12.00;86.90;;;;;;5091219;28;20059;-79
2023/12/21 12:05:52;;;;;;;12.15;4.10;;;12.10;86.80;;;;;;5090471;28;20044;-79
2023/12/21 12:08:25;;;;;;;19.98;3.92;;;12.10;86.80;;;;;;5126074;27;20061;-79
2023/12/21 12:10:55;;;;;;;20.10;4.53;;;12.00;86.50;;;;;;5055133;28;20086;-79
2023/12/21 12:13:24;;;;;;;16.13;4.13;;;11.80;86.90;;;;;;5055112;28;20120;-80
2023/12/21 12:15:52;;;;;;;21.33;5.30;;;11.70;87.20;;;;;;5065661;28;20039;-78
2023/12/21 12:18:21;;;;;;;19.10;4.53;;;11.70;87.20;;;;;;5102569;28;20388;-81
2023/12/21 12:20:48;;;;;;;19.35;4.53;;;11.70;87.30;;;;;;5074932;28;20032;-81
2023/12/21 12:23:15;;;;;;;19.98;4.22;;;11.70;87.20;;;;;;5075085;28;20468;-80
2023/12/21 12:25:42;;;;;;;18.08;4.43;;;11.60;87.10;;;;;;5023614;28;20036;-82
2023/12/21 12:28:08;;;;;;;23.58;5.10;;;11.60;87.30;;;;;;5071487;28;20044;-80
2023/12/21 12:30:38;;;;;;;21.98;4.38;;;11.60;87.10;;;;;;5038296;28;20028;-78
2023/12/21 12:33:05;;;;;;;24.88;5.28;;;11.60;86.80;;;;;;5054767;28;20036;-80
2023/12/21 12:35:37;;;;;;;23.90;5.05;;;11.50;86.60;;;;;;5054755;28;20483;-80
2023/12/21 12:38:09;;;;;;;22.45;4.18;;;11.50;87.00;;;;;;5055096;28;20097;-80